Monday, April 23, 2018, 1:41 AM GMT
Back to Local

CYHZ, Halifax International Airport

Location: , , Canada Lat: 44.883
Local Time: 1:41 AM GMT ( 1:41 GMT) Lon: -63.5
Time Zone: GMT Elev: 475 ft

Show me the last for .
Show Decoded

2018-04-23 01:00 METAR CYHZ 230100Z 04004KT 15SM SKC 04/M07 A3023 RMK SLP244 =
2018-04-23 00:00 METAR CYHZ 230000Z 04005KT 15SM SKC 05/M06 A3021 RMK SLP236 =
2018-04-22 23:00 METAR CYHZ 222300Z 03007KT 15SM FEW066 07/M05 A3019 RMK AC1 SLP229 =
2018-04-22 22:00 METAR CYHZ 222200Z 35008G15KT 15SM FEW068 FEW250 09/M05 A3017 RMK AC1CI1 CI TR
                 SLP222 =
2018-04-22 21:42 METAR CYHZ 222142Z 34011KT 15SM FEW070 SCT250 10/M06 A3016 RMK CU2CI2 SLP219 =
2018-04-22 20:00 METAR CYHZ 222000Z 33006KT 290V010 15SM FEW069 SCT250 10/M06 A3014 RMK AC2CI1
                 SLP211 =
2018-04-22 19:00 METAR CYHZ 221900Z 34010G16KT 300V360 15SM SCT069 BKN250 10/M05 A3013 RMK AC3CI2
                 SLP208 =
2018-04-22 18:00 METAR CYHZ 221800Z 32015KT 300V010 15SM FEW065 BKN260 11/M04 A3012 RMK CU2CI3
                 SLP207 =
2018-04-22 17:00 METAR CYHZ 221700Z 36006G19KT 290V030 15SM FEW055 SCT260 10/M04 A3013 RMK CU1CI3
                 SLP209 =
2018-04-22 16:00 METAR CYHZ 221600Z 33008G18KT 15SM FEW058 SCT260 09/M05 A3013 RMK CU1CI3 SLP208
                 =
2018-04-22 15:00 METAR CYHZ 221500Z 32011G17KT 280V340 15SM FEW055 SCT260 08/M05 A3013 RMK CU1CI4
                 CU TR SLP208 =
2018-04-22 14:00 METAR CYHZ 221400Z 33011G19KT 15SM FEW050 SCT260 07/M06 A3014 RMK SC1CI3 SC TR
                 SLP214 =
2018-04-22 13:00 METAR CYHZ 221300Z 28013KT 260V330 15SM FEW050 SCT260 06/M06 A3014 RMK SC1CI3 SC
                 TR SLP212 =
2018-04-22 12:00 METAR CYHZ 221200Z 30009KT 15SM FEW050 SCT260 04/M04 A3014 RMK SC1CI4 SC TR
                 SLP213 =
2018-04-22 11:00 METAR CYHZ 221100Z 28005KT 15SM FEW050 SCT260 03/M03 A3013 RMK SC1CI3 SC TR
                 SLP211 =
2018-04-22 10:00 METAR CYHZ 221000Z 27006KT 15SM SCT260 01/M04 A3012 RMK CI3 SLP208 =
2018-04-22 09:00 METAR CYHZ 220900Z 27004KT 15SM SCT260 02/M05 A3011 RMK CI3 SLP202 =
2018-04-22 08:00 METAR CYHZ 220800Z 00000KT 15SM FEW260 01/M04 A3010 RMK CI2 SLP199 =
2018-04-22 07:00 METAR CYHZ 220700Z 07002KT 15SM FEW260 02/M05 A3010 RMK CI2 SLP198 =
2018-04-22 06:00 METAR CYHZ 220600Z 32003KT 310V080 15SM SCT120 01/M03 A3010 RMK AC4 SLP200 =
2018-04-22 05:00 METAR CYHZ 220500Z 08004KT 15SM BKN120 02/M02 A3010 RMK AC6 SLP201 =
2018-04-22 04:00 METAR CYHZ 220400Z 03003KT 15SM OVC130 02/M02 A3011 RMK AC8 SLP202 =
2018-04-22 03:00 METAR CYHZ 220300Z 00000KT 15SM FEW130 BKN240 02/M02 A3009 RMK AC1CI5 SLP198 =
2018-04-22 02:00 METAR CYHZ 220200Z 19004KT 15SM SCT080 02/M02 A3009 RMK AC4 SLP195 =

Support USWX by starting your Amazon purchase here.